createdAt,value
2023-05-23T00:01:10.831Z,2.57
2023-05-23T00:03:23.030Z,2.80
2023-05-23T00:05:32.166Z,2.97
2023-05-23T00:07:41.338Z,3.00
2023-05-23T00:09:50.144Z,2.70
2023-05-23T00:11:59.351Z,2.73
2023-05-23T00:14:08.567Z,2.83
2023-05-23T00:16:18.066Z,3.30
2023-05-23T00:18:29.202Z,2.60
2023-05-23T00:20:38.224Z,2.47
2023-05-23T00:22:48.519Z,2.80
2023-05-23T00:24:57.859Z,2.90
2023-05-23T00:27:07.736Z,2.77
2023-05-23T00:29:17.789Z,2.90
2023-05-23T00:31:27.037Z,3.10
2023-05-23T00:33:37.241Z,2.50
2023-05-23T00:35:46.428Z,2.87
2023-05-23T00:37:55.710Z,3.27
2023-05-23T00:40:05.433Z,2.70
2023-05-23T00:42:14.701Z,2.83
2023-05-23T00:44:23.850Z,3.10
2023-05-23T00:46:33.584Z,2.70
2023-05-23T00:48:43.910Z,2.57
2023-05-23T00:50:53.203Z,2.47
2023-05-23T00:53:03.066Z,3.07
2023-05-23T00:55:12.156Z,2.97
2023-05-23T00:57:20.751Z,3.00
2023-05-23T00:59:29.842Z,2.80
2023-05-23T01:01:38.923Z,2.60
2023-05-23T01:03:50.350Z,2.60
2023-05-23T01:05:59.174Z,2.73
2023-05-23T01:08:08.645Z,2.60
2023-05-23T01:10:18.074Z,2.60
2023-05-23T01:12:30.798Z,2.70
2023-05-23T01:14:44.179Z,3.00
2023-05-23T01:16:56.835Z,2.83
2023-05-23T01:19:13.898Z,2.60
2023-05-23T01:21:24.811Z,2.70
2023-05-23T01:23:52.681Z,2.77
2023-05-23T01:26:17.024Z,3.13
2023-05-23T01:28:29.982Z,2.90
2023-05-23T01:30:41.695Z,2.47
2023-05-23T01:32:51.360Z,3.20
2023-05-23T01:35:01.218Z,2.70
2023-05-23T01:37:15.042Z,2.63
2023-05-23T01:39:23.718Z,2.87
2023-05-23T01:41:32.623Z,2.77
2023-05-23T01:43:43.678Z,2.83
2023-05-23T01:45:53.933Z,2.90
2023-05-23T01:48:03.513Z,3.10
2023-05-23T01:50:12.941Z,2.90
2023-05-23T01:52:22.442Z,3.57
2023-05-23T01:54:32.642Z,3.20
2023-05-23T01:56:43.159Z,2.80
2023-05-23T01:58:53.833Z,3.03
2023-05-23T02:01:03.122Z,3.00
2023-05-23T02:03:12.291Z,3.17
2023-05-23T02:05:21.112Z,2.90
2023-05-23T02:07:30.764Z,3.07
2023-05-23T02:09:39.830Z,3.20
2023-05-23T02:11:48.617Z,3.13
2023-05-23T02:13:59.364Z,3.00
2023-05-23T02:16:08.269Z,3.20
2023-05-23T02:18:18.308Z,3.00
2023-05-23T02:20:26.979Z,2.70
2023-05-23T02:22:36.067Z,3.03
2023-05-23T02:24:44.915Z,3.23
2023-05-23T02:26:54.486Z,2.80
2023-05-23T02:29:05.467Z,2.83
2023-05-23T02:31:14.929Z,3.17
2023-05-23T02:33:24.278Z,3.10
2023-05-23T02:35:32.928Z,2.90
2023-05-23T02:37:42.000Z,2.77
2023-05-23T02:39:51.182Z,3.00
2023-05-23T02:41:59.821Z,3.30
2023-05-23T02:44:10.763Z,2.80
2023-05-23T02:46:19.958Z,3.10
2023-05-23T02:48:28.838Z,2.60
2023-05-23T02:50:37.938Z,3.03
2023-05-23T02:52:47.076Z,2.90
2023-05-23T02:54:55.994Z,3.20
2023-05-23T02:57:05.373Z,3.10
2023-05-23T02:59:15.360Z,3.37
2023-05-23T03:01:24.163Z,2.93
2023-05-23T03:03:33.743Z,2.87
2023-05-23T03:05:43.376Z,3.00
2023-05-23T03:07:52.738Z,2.83
2023-05-23T03:10:02.151Z,2.67
2023-05-23T03:12:11.396Z,2.93
2023-05-23T03:14:22.241Z,3.20
2023-05-23T03:16:31.498Z,2.83
2023-05-23T03:18:42.126Z,2.70
2023-05-23T03:20:51.290Z,2.50
2023-05-23T03:23:00.481Z,3.17
2023-05-23T03:25:09.912Z,3.10
2023-05-23T03:27:19.071Z,2.67
2023-05-23T03:29:29.574Z,3.10
2023-05-23T03:31:38.325Z,2.80
2023-05-23T03:33:47.340Z,2.77
2023-05-23T03:35:57.704Z,3.07
2023-05-23T03:38:07.665Z,2.80
2023-05-23T03:40:16.551Z,2.70
2023-05-23T03:42:26.088Z,3.30
2023-05-23T03:44:37.002Z,2.80
2023-05-23T03:46:46.087Z,2.80
2023-05-23T03:48:55.154Z,2.63
2023-05-23T03:51:04.219Z,2.73
2023-05-23T03:53:13.265Z,2.80
2023-05-23T03:55:24.435Z,2.70
2023-05-23T03:57:33.166Z,2.60
2023-05-23T03:59:43.745Z,2.80
2023-05-23T04:01:52.615Z,2.53
2023-05-23T04:04:01.475Z,2.60
2023-05-23T04:06:12.212Z,2.50
2023-05-23T04:08:22.872Z,2.30
2023-05-23T04:10:31.948Z,2.53
2023-05-23T04:12:43.369Z,3.43
2023-05-23T04:14:53.477Z,2.70
2023-05-23T04:17:02.772Z,2.53
2023-05-23T04:19:12.691Z,2.50
2023-05-23T04:21:21.794Z,2.80
2023-05-23T04:23:30.659Z,2.90
2023-05-23T04:25:39.940Z,2.70
2023-05-23T04:27:49.238Z,2.53
2023-05-23T04:30:00.696Z,2.40
2023-05-23T04:32:10.245Z,2.20
2023-05-23T04:34:22.650Z,2.50
2023-05-23T04:36:31.685Z,2.47
2023-05-23T04:38:41.184Z,2.90
2023-05-23T04:40:51.425Z,2.60
2023-05-23T04:43:00.061Z,2.70
2023-05-23T04:45:11.574Z,2.50
2023-05-23T04:47:20.727Z,2.60
2023-05-23T04:49:29.889Z,2.70
2023-05-23T04:51:39.203Z,2.40
2023-05-23T04:53:48.447Z,2.40
2023-05-23T04:55:57.538Z,2.50
2023-05-23T04:58:08.368Z,2.37
2023-05-23T05:00:20.874Z,2.70
2023-05-23T05:02:35.366Z,2.37
2023-05-23T05:04:44.050Z,2.30
2023-05-23T05:06:52.682Z,2.27
2023-05-23T05:09:01.603Z,2.30
2023-05-23T05:11:11.012Z,2.97
2023-05-23T05:13:19.755Z,2.20
2023-05-23T05:15:30.475Z,2.10
2023-05-23T05:17:39.183Z,2.40
2023-05-23T05:19:48.120Z,1.93
2023-05-23T05:21:57.981Z,2.10
2023-05-23T05:24:09.727Z,2.40
2023-05-23T05:26:18.507Z,2.50
2023-05-23T05:28:27.612Z,2.70
2023-05-23T05:30:37.799Z,2.40
2023-05-23T05:32:48.233Z,2.30
2023-05-23T05:34:57.081Z,2.30
2023-05-23T05:37:06.316Z,2.30
2023-05-23T05:39:15.616Z,2.40
2023-05-23T05:41:24.726Z,2.30
2023-05-23T05:43:33.561Z,2.27
2023-05-23T05:45:44.135Z,2.20
2023-05-23T05:47:53.749Z,2.27
2023-05-23T05:50:03.369Z,2.50
2023-05-23T05:52:11.958Z,2.70
2023-05-23T05:54:20.830Z,2.20
2023-05-23T05:56:29.614Z,2.00
2023-05-23T05:58:38.732Z,2.50
2023-05-23T06:00:49.130Z,2.10
2023-05-23T06:02:58.313Z,2.53
2023-05-23T06:05:08.066Z,2.30
2023-05-23T06:07:17.138Z,2.23
2023-05-23T06:09:26.236Z,2.30
2023-05-23T06:11:35.269Z,2.10
2023-05-23T06:13:44.232Z,2.20
2023-05-23T06:15:54.634Z,2.33
2023-05-23T06:18:03.312Z,2.47
2023-05-23T06:20:12.916Z,2.20
2023-05-23T06:22:22.045Z,2.03
2023-05-23T06:24:31.065Z,2.20
2023-05-23T06:26:40.287Z,2.23
2023-05-23T06:28:49.379Z,2.43
2023-05-23T06:31:00.442Z,2.47
2023-05-23T06:33:09.503Z,2.40
2023-05-23T06:35:19.420Z,2.10
2023-05-23T06:37:28.227Z,2.10
2023-05-23T06:39:37.326Z,2.47
2023-05-23T06:41:46.418Z,2.40
2023-05-23T06:43:55.418Z,2.33
2023-05-23T06:46:05.858Z,2.43
2023-05-23T06:48:14.431Z,2.43
2023-05-23T06:50:23.486Z,2.20
2023-05-23T06:52:32.751Z,2.43
2023-05-23T06:54:41.848Z,2.70
2023-05-23T06:56:50.493Z,2.27
2023-05-23T06:59:00.016Z,2.40
2023-05-23T07:01:11.626Z,2.37
2023-05-23T07:03:20.693Z,2.30
2023-05-23T07:05:29.693Z,2.70
2023-05-23T07:07:39.206Z,2.23
2023-05-23T07:09:48.062Z,3.10
2023-05-23T07:11:57.135Z,2.53
2023-05-23T07:14:06.102Z,2.40
2023-05-23T07:16:16.889Z,2.30
2023-05-23T07:18:25.794Z,2.20
2023-05-23T07:20:35.320Z,2.50
2023-05-23T07:22:45.541Z,2.60
2023-05-23T07:24:54.209Z,2.40
2023-05-23T07:27:03.264Z,2.60
2023-05-23T07:29:12.214Z,2.70
2023-05-23T07:31:23.077Z,2.57
2023-05-23T07:33:34.912Z,2.57
2023-05-23T07:35:44.057Z,2.30
2023-05-23T07:37:53.409Z,2.17
2023-05-23T07:40:04.783Z,2.27
2023-05-23T07:42:13.634Z,2.60
2023-05-23T07:44:24.952Z,2.60
2023-05-23T07:46:35.696Z,2.27
2023-05-23T07:48:45.126Z,2.60
2023-05-23T07:50:55.603Z,2.60
2023-05-23T07:53:04.360Z,3.40
2023-05-23T07:55:13.264Z,2.97
2023-05-23T07:57:22.293Z,3.77
2023-05-23T07:59:31.520Z,2.90
2023-05-23T08:01:42.480Z,3.07
2023-05-23T08:03:51.219Z,3.37
2023-05-23T08:05:59.840Z,4.10
2023-05-23T08:08:08.427Z,8.97
2023-05-23T08:10:17.365Z,7.53
2023-05-23T08:12:26.586Z,8.57
2023-05-23T08:14:49.634Z,8.90
2023-05-23T08:17:02.714Z,5.60
2023-05-23T08:19:11.863Z,5.53
2023-05-23T08:21:20.760Z,4.70
2023-05-23T08:23:29.338Z,3.73
2023-05-23T08:25:38.687Z,6.53
2023-05-23T08:27:47.728Z,5.97
2023-05-23T08:29:56.615Z,8.67
2023-05-23T08:32:07.015Z,6.57
2023-05-23T08:34:16.386Z,6.17
2023-05-23T08:36:25.699Z,7.43
2023-05-23T08:38:34.812Z,4.70
2023-05-23T08:40:46.458Z,6.27
2023-05-23T08:42:55.612Z,6.33
2023-05-23T08:45:05.019Z,5.67
2023-05-23T08:47:18.971Z,6.30
2023-05-23T08:49:28.010Z,6.10
2023-05-23T08:51:38.129Z,4.20
2023-05-23T08:53:48.853Z,8.03
2023-05-23T08:56:02.434Z,7.10
2023-05-23T08:58:13.782Z,3.90
2023-05-23T09:00:23.466Z,4.83
2023-05-23T09:02:35.726Z,7.07
2023-05-23T09:04:44.687Z,5.03
2023-05-23T09:06:54.111Z,5.03
2023-05-23T09:09:03.015Z,5.13
2023-05-23T09:11:13.115Z,6.63
2023-05-23T09:13:22.079Z,3.27
2023-05-23T09:15:31.902Z,5.07
2023-05-23T09:17:42.489Z,4.63
2023-05-23T09:19:51.780Z,4.10
2023-05-23T09:22:00.819Z,3.30
2023-05-23T09:24:09.815Z,4.70
2023-05-23T09:26:19.060Z,5.90
2023-05-23T09:28:28.118Z,5.33
2023-05-23T09:30:36.986Z,2.63
2023-05-23T09:32:59.441Z,2.70
2023-05-23T09:35:12.415Z,2.90
2023-05-23T09:37:24.392Z,2.83
2023-05-23T09:39:33.244Z,2.70
2023-05-23T09:41:42.264Z,2.70
2023-05-23T09:43:54.405Z,2.50
2023-05-23T09:46:03.443Z,2.70
2023-05-23T09:48:15.910Z,2.60
2023-05-23T09:50:25.106Z,2.80
2023-05-23T09:52:39.013Z,2.50
2023-05-23T09:54:48.221Z,2.27
2023-05-23T09:56:58.075Z,2.50
2023-05-23T09:59:08.769Z,2.37
2023-05-23T10:01:18.167Z,2.53
2023-05-23T10:03:31.052Z,2.70
2023-05-23T10:05:40.718Z,2.70
2023-05-23T10:07:49.484Z,2.30
2023-05-23T10:10:00.786Z,2.40
2023-05-23T10:12:28.593Z,2.33
2023-05-23T10:14:38.869Z,2.73
2023-05-23T10:16:52.354Z,2.13
2023-05-23T10:19:05.659Z,2.30
2023-05-23T10:21:14.809Z,2.67
2023-05-23T10:23:24.309Z,2.60
2023-05-23T10:25:34.679Z,2.73
2023-05-23T10:27:44.546Z,2.40
2023-05-23T10:29:53.902Z,2.50
2023-05-23T10:32:04.284Z,2.80
2023-05-23T10:34:17.408Z,2.73
2023-05-23T10:36:31.428Z,2.20
2023-05-23T10:38:43.110Z,2.73
2023-05-23T10:40:55.597Z,2.67
2023-05-23T10:43:05.674Z,2.70
2023-05-23T10:45:18.716Z,2.80
2023-05-23T10:47:30.633Z,2.80
2023-05-23T10:49:45.535Z,2.67
2023-05-23T10:51:54.849Z,2.63
2023-05-23T10:54:04.790Z,2.80
2023-05-23T10:56:21.926Z,2.50
2023-05-23T10:58:32.046Z,2.50
2023-05-23T11:00:41.412Z,2.60
2023-05-23T11:02:57.540Z,2.80
2023-05-23T11:05:23.873Z,2.63
2023-05-23T11:07:33.371Z,2.53
2023-05-23T11:10:02.121Z,2.80
2023-05-23T11:12:10.701Z,2.63
2023-05-23T11:14:19.961Z,2.37
2023-05-23T11:16:30.399Z,2.67
2023-05-23T11:18:39.393Z,2.63
2023-05-23T11:20:51.537Z,2.80
2023-05-23T11:23:02.937Z,3.30
2023-05-23T11:25:12.261Z,3.17
2023-05-23T11:27:27.751Z,2.87
2023-05-23T11:29:36.932Z,3.03
2023-05-23T11:31:46.226Z,2.97
2023-05-23T11:33:54.828Z,2.70
2023-05-23T11:36:05.872Z,2.40
2023-05-23T11:38:16.697Z,2.77
2023-05-23T11:40:29.677Z,2.80
2023-05-23T11:42:43.927Z,2.97
2023-05-23T11:44:52.977Z,2.87
2023-05-23T11:47:02.621Z,2.43
2023-05-23T11:49:15.019Z,2.50
2023-05-23T11:51:25.747Z,2.70
2023-05-23T11:53:35.465Z,2.50
2023-05-23T11:55:50.806Z,2.50
2023-05-23T11:57:59.471Z,2.57
2023-05-23T12:00:09.003Z,2.47
2023-05-23T12:02:17.784Z,2.60
2023-05-23T12:04:27.990Z,2.83
2023-05-23T12:06:38.734Z,2.60
2023-05-23T12:08:47.471Z,2.90
2023-05-23T12:10:59.491Z,2.80
2023-05-23T12:13:08.248Z,2.40
2023-05-23T12:15:17.243Z,2.40
2023-05-23T12:17:26.388Z,2.17
2023-05-23T12:19:35.126Z,2.73
2023-05-23T12:21:47.393Z,2.53
2023-05-23T12:23:56.198Z,2.30
2023-05-23T12:26:07.057Z,2.33
2023-05-23T12:28:16.331Z,2.50
2023-05-23T12:30:25.574Z,2.40
2023-05-23T12:32:34.796Z,2.50
2023-05-23T12:34:44.396Z,2.47
2023-05-23T12:37:10.586Z,2.57
2023-05-23T12:39:30.215Z,2.47
2023-05-23T12:41:39.053Z,2.40
2023-05-23T12:43:52.147Z,2.63
2023-05-23T12:46:01.018Z,2.50
2023-05-23T12:48:11.436Z,2.53
2023-05-23T12:50:20.191Z,2.50
2023-05-23T12:52:30.759Z,2.20
2023-05-23T12:54:41.086Z,2.60
2023-05-23T12:56:50.163Z,2.20
2023-05-23T12:58:59.187Z,2.63
2023-05-23T13:01:08.018Z,2.40
2023-05-23T13:03:17.111Z,2.70
2023-05-23T13:05:27.355Z,2.67
2023-05-23T13:07:38.363Z,2.43
2023-05-23T13:09:47.002Z,2.27
2023-05-23T13:11:56.811Z,2.43
2023-05-23T13:14:05.799Z,2.50
2023-05-23T13:16:14.804Z,2.30
2023-05-23T13:18:24.087Z,2.13
2023-05-23T13:20:33.133Z,2.50
2023-05-23T13:22:43.880Z,2.67
2023-05-23T13:24:53.021Z,2.47
2023-05-23T13:27:02.399Z,2.60
2023-05-23T13:29:11.174Z,2.60
2023-05-23T13:31:20.533Z,2.37
2023-05-23T13:33:29.431Z,2.30
2023-05-23T13:35:38.151Z,2.30
2023-05-23T13:37:48.932Z,2.40
2023-05-23T13:39:58.057Z,2.30
2023-05-23T13:42:08.187Z,2.43
2023-05-23T13:44:16.847Z,2.77
2023-05-23T13:46:25.837Z,2.30
2023-05-23T13:48:34.938Z,2.50
2023-05-23T13:50:45.110Z,2.27
2023-05-23T13:52:56.251Z,2.43
2023-05-23T13:55:04.878Z,2.57
2023-05-23T13:57:14.122Z,2.90
2023-05-23T13:59:22.979Z,2.23
2023-05-23T14:01:31.812Z,2.53
2023-05-23T14:03:40.964Z,2.50
2023-05-23T14:05:50.059Z,2.43
2023-05-23T14:08:00.653Z,2.53
2023-05-23T14:10:10.058Z,2.53
2023-05-23T14:12:19.057Z,2.50
2023-05-23T14:14:27.805Z,2.40
2023-05-23T14:16:36.838Z,2.37
2023-05-23T14:18:45.595Z,2.40
2023-05-23T14:20:54.290Z,2.33
2023-05-23T14:23:04.274Z,2.20
2023-05-23T14:25:13.959Z,2.17
2023-05-23T14:27:22.977Z,2.30
2023-05-23T14:29:31.808Z,2.33
2023-05-23T14:31:41.330Z,2.30
2023-05-23T14:33:50.429Z,2.10
2023-05-23T14:35:59.403Z,2.03
2023-05-23T14:38:10.309Z,2.00
2023-05-23T14:40:19.278Z,2.03
2023-05-23T14:42:28.223Z,1.90
2023-05-23T14:44:37.056Z,2.10
2023-05-23T14:46:48.992Z,2.00
2023-05-23T14:48:57.771Z,2.00
2023-05-23T14:51:07.388Z,2.03
2023-05-23T14:53:21.939Z,2.10
2023-05-23T14:55:30.493Z,1.93
2023-05-23T14:57:39.461Z,2.23
2023-05-23T14:59:48.080Z,2.20
2023-05-23T15:01:56.770Z,2.20
2023-05-23T15:04:09.582Z,2.30
2023-05-23T15:06:18.905Z,2.33
2023-05-23T15:08:29.908Z,2.50
2023-05-23T15:10:39.132Z,2.37
2023-05-23T15:12:48.127Z,2.00
2023-05-23T15:15:03.845Z,2.20
2023-05-23T15:17:13.669Z,2.47
2023-05-23T15:19:22.780Z,2.40
2023-05-23T15:21:32.331Z,2.40
2023-05-23T15:23:42.484Z,2.23
2023-05-23T15:25:51.469Z,2.20
2023-05-23T15:28:00.307Z,2.10
2023-05-23T15:30:09.803Z,2.23
2023-05-23T15:32:18.594Z,2.17
2023-05-23T15:34:27.889Z,2.03
2023-05-23T15:36:37.013Z,2.10
2023-05-23T15:38:47.965Z,2.10
2023-05-23T15:40:56.892Z,2.20
2023-05-23T15:43:05.821Z,2.20
2023-05-23T15:45:14.880Z,2.40
2023-05-23T15:47:24.095Z,2.30
2023-05-23T15:49:32.993Z,2.00
2023-05-23T15:51:41.953Z,2.07
2023-05-23T15:56:04.027Z,2.00
2023-05-23T15:58:12.851Z,2.50
2023-05-23T16:00:22.617Z,2.50
2023-05-23T16:02:32.330Z,2.57
2023-05-23T16:04:42.106Z,2.47
2023-05-23T16:06:51.080Z,2.47
2023-05-23T16:09:01.560Z,2.10
2023-05-23T16:11:10.644Z,2.20
2023-05-23T16:13:19.849Z,2.30
2023-05-23T16:15:28.800Z,2.13
2023-05-23T16:17:38.325Z,2.10
2023-05-23T16:19:47.098Z,2.20
2023-05-23T16:21:55.981Z,2.20
2023-05-23T16:24:06.819Z,2.30
2023-05-23T16:26:16.066Z,2.10
2023-05-23T16:28:25.198Z,2.47
2023-05-23T16:30:34.194Z,2.40
2023-05-23T16:32:43.194Z,2.57
2023-05-23T16:34:54.135Z,2.20
2023-05-23T16:37:03.813Z,2.30
2023-05-23T16:39:14.432Z,2.60
2023-05-23T16:41:23.481Z,2.27
2023-05-23T16:43:32.485Z,2.47
2023-05-23T16:45:42.396Z,2.67
2023-05-23T16:47:51.174Z,2.50
2023-05-23T16:50:00.430Z,2.70
2023-05-23T16:52:09.502Z,2.47
2023-05-23T16:54:19.918Z,2.67
2023-05-23T16:56:28.637Z,2.43
2023-05-23T16:58:39.129Z,2.43
2023-05-23T17:00:48.178Z,2.37
2023-05-23T17:02:57.032Z,2.33
2023-05-23T17:05:06.118Z,2.20
2023-05-23T17:07:15.210Z,2.20
2023-05-23T17:09:25.748Z,2.27
2023-05-23T17:11:34.445Z,2.30
2023-05-23T17:13:43.225Z,2.23
2023-05-23T17:15:52.262Z,2.57
2023-05-23T17:18:00.882Z,2.27
2023-05-23T17:20:11.649Z,2.30
2023-05-23T17:22:20.437Z,2.30
2023-05-23T17:24:31.287Z,2.47
2023-05-23T17:26:40.287Z,2.30
2023-05-23T17:28:49.052Z,2.40
2023-05-23T17:30:57.828Z,2.60
2023-05-23T17:33:06.884Z,2.87
2023-05-23T17:35:16.108Z,2.20
2023-05-23T17:37:26.048Z,2.10
2023-05-23T17:39:36.601Z,2.43
2023-05-23T17:41:45.307Z,2.20
2023-05-23T17:43:54.338Z,2.20
2023-05-23T17:46:03.237Z,2.30
2023-05-23T17:48:12.322Z,2.43
2023-05-23T17:50:20.953Z,2.40
2023-05-23T17:52:29.886Z,2.60
2023-05-23T17:54:40.198Z,2.50
2023-05-23T17:56:48.910Z,2.23
2023-05-23T17:58:57.771Z,2.77
2023-05-23T18:01:07.382Z,2.70
2023-05-23T18:03:16.600Z,2.60
2023-05-23T18:05:25.238Z,3.00
2023-05-23T18:07:34.510Z,2.67
2023-05-23T18:09:45.943Z,2.47
2023-05-23T18:11:54.541Z,2.67
2023-05-23T18:14:03.427Z,2.90
2023-05-23T18:16:12.064Z,2.67
2023-05-23T18:18:21.554Z,2.83
2023-05-23T18:20:30.688Z,2.33
2023-05-23T18:22:39.506Z,2.77
2023-05-23T18:24:50.145Z,3.10
2023-05-23T18:26:58.894Z,2.73
2023-05-23T18:29:08.043Z,2.97
2023-05-23T18:31:17.467Z,2.80
2023-05-23T18:33:27.743Z,3.33
2023-05-23T18:35:36.879Z,4.10
2023-05-23T18:37:46.529Z,4.03
2023-05-23T18:39:59.148Z,4.37
2023-05-23T18:42:08.135Z,3.90
2023-05-23T18:44:20.670Z,4.67
2023-05-23T18:46:30.473Z,4.23
2023-05-23T18:48:39.327Z,4.43
2023-05-23T18:50:48.234Z,4.67
2023-05-23T18:52:57.386Z,4.43
2023-05-23T18:55:08.871Z,4.67
2023-05-23T18:57:18.064Z,4.23
2023-05-23T18:59:27.359Z,4.57
2023-05-23T19:01:36.507Z,3.53
2023-05-23T19:03:46.141Z,3.33
2023-05-23T19:05:59.584Z,4.27
2023-05-23T19:08:08.907Z,4.17
2023-05-23T19:10:19.554Z,4.07
2023-05-23T19:12:28.336Z,3.77
2023-05-23T19:14:37.421Z,3.50
2023-05-23T19:16:46.453Z,3.83
2023-05-23T19:18:56.101Z,4.00
2023-05-23T19:21:05.174Z,3.70
2023-05-23T19:23:14.321Z,3.50
2023-05-23T19:25:24.894Z,4.07
2023-05-23T19:27:34.397Z,3.80
2023-05-23T19:29:44.484Z,3.77
2023-05-23T19:31:53.832Z,3.87
2023-05-23T19:34:02.495Z,3.70
2023-05-23T19:36:11.290Z,3.33
2023-05-23T19:38:20.607Z,3.70
2023-05-23T19:40:31.376Z,3.90
2023-05-23T19:42:40.444Z,3.40
2023-05-23T19:44:50.611Z,3.97
2023-05-23T19:46:59.171Z,3.10
2023-05-23T19:49:09.837Z,3.30
2023-05-23T19:51:18.538Z,4.33
2023-05-23T19:53:27.366Z,4.33
2023-05-23T19:55:38.356Z,3.57
2023-05-23T19:57:47.422Z,3.27
2023-05-23T19:59:56.428Z,3.23
2023-05-23T20:02:05.594Z,3.20
2023-05-23T20:04:14.651Z,3.07
2023-05-23T20:06:23.597Z,2.80
2023-05-23T20:08:32.591Z,2.80
2023-05-23T20:10:43.279Z,3.10
2023-05-23T20:12:52.648Z,2.83
2023-05-23T20:15:01.129Z,2.70
2023-05-23T20:17:09.899Z,3.33
2023-05-23T20:19:18.799Z,2.63
2023-05-23T20:21:27.505Z,2.63
2023-05-23T20:23:36.531Z,2.77
2023-05-23T20:25:47.966Z,2.90
2023-05-23T20:27:58.245Z,2.97
2023-05-23T20:30:07.744Z,2.80
2023-05-23T20:32:16.732Z,2.90
2023-05-23T20:34:25.469Z,3.03
2023-05-23T20:36:34.165Z,2.90
2023-05-23T20:38:43.219Z,2.80
2023-05-23T20:40:54.127Z,3.10
2023-05-23T20:43:04.961Z,3.07
2023-05-23T20:45:16.247Z,2.60
2023-05-23T20:47:25.636Z,3.10
2023-05-23T20:49:35.404Z,2.83
2023-05-23T20:51:44.913Z,2.97
2023-05-23T20:53:54.427Z,2.87
2023-05-23T20:56:04.774Z,2.70
2023-05-23T20:58:13.648Z,2.67
2023-05-23T21:00:22.896Z,2.70
2023-05-23T21:02:32.125Z,2.67
2023-05-23T21:04:41.069Z,2.90
2023-05-23T21:06:49.982Z,2.53
2023-05-23T21:08:58.912Z,2.93
2023-05-23T21:11:09.568Z,2.63
2023-05-23T21:13:18.072Z,2.80
2023-05-23T21:15:27.213Z,2.93
2023-05-23T21:17:36.055Z,3.30
2023-05-23T21:19:44.714Z,3.50
2023-05-23T21:21:53.709Z,3.60
2023-05-23T21:24:02.876Z,3.33
2023-05-23T21:26:13.991Z,3.40
2023-05-23T21:28:22.938Z,3.97
2023-05-23T21:30:32.269Z,3.33
2023-05-23T21:32:41.163Z,3.30
2023-05-23T21:34:50.001Z,3.80
2023-05-23T21:36:59.482Z,4.43
2023-05-23T21:39:08.419Z,7.30
2023-05-23T21:41:19.508Z,7.73
2023-05-23T21:43:28.310Z,6.67
2023-05-23T21:45:37.347Z,5.90
2023-05-23T21:47:45.944Z,6.10
2023-05-23T21:49:55.002Z,5.87
2023-05-23T21:52:04.266Z,5.53
2023-05-23T21:54:13.319Z,5.40
2023-05-23T21:56:23.778Z,4.77
2023-05-23T21:58:32.653Z,4.73
2023-05-23T22:00:43.510Z,4.97
2023-05-23T22:02:52.728Z,4.77
2023-05-23T22:05:01.938Z,4.53
2023-05-23T22:07:10.794Z,4.67
2023-05-23T22:09:19.354Z,4.03
2023-05-23T22:11:34.432Z,4.47
2023-05-23T22:13:43.212Z,4.20
2023-05-23T22:15:51.882Z,4.50
2023-05-23T22:18:00.583Z,3.87
2023-05-23T22:20:14.651Z,4.17
2023-05-23T22:22:23.945Z,3.47
2023-05-23T22:24:32.912Z,3.80
2023-05-23T22:26:43.912Z,3.77
2023-05-23T22:28:53.650Z,3.80
2023-05-23T22:31:02.671Z,3.63
2023-05-23T22:33:13.348Z,3.40
2023-05-23T22:35:22.400Z,3.27
2023-05-23T22:37:31.946Z,3.50
2023-05-23T22:39:41.217Z,3.47
2023-05-23T22:41:52.336Z,3.47
2023-05-23T22:44:01.626Z,3.60
2023-05-23T22:46:11.167Z,3.20
2023-05-23T22:48:20.257Z,3.93
2023-05-23T22:50:29.339Z,3.50
2023-05-23T22:52:39.058Z,3.50
2023-05-23T22:54:47.758Z,3.50
2023-05-23T22:56:58.872Z,3.90
2023-05-23T22:59:07.910Z,3.47
2023-05-23T23:01:16.874Z,3.40
2023-05-23T23:03:25.833Z,3.73
2023-05-23T23:05:34.479Z,3.60
2023-05-23T23:07:43.749Z,3.77
2023-05-23T23:09:52.743Z,3.70
2023-05-23T23:12:03.714Z,3.43
2023-05-23T23:14:12.586Z,3.70
2023-05-23T23:16:21.287Z,3.83
2023-05-23T23:18:30.351Z,3.80
2023-05-23T23:20:39.333Z,3.47
2023-05-23T23:22:48.169Z,3.67
2023-05-23T23:24:57.165Z,3.77
2023-05-23T23:27:08.184Z,3.73
2023-05-23T23:29:17.217Z,3.60
2023-05-23T23:31:25.899Z,3.60
2023-05-23T23:33:35.382Z,3.47
2023-05-23T23:35:46.608Z,3.77
2023-05-23T23:37:55.182Z,4.00
2023-05-23T23:40:05.264Z,3.57
2023-05-23T23:42:16.298Z,3.57
2023-05-23T23:44:24.942Z,3.60
2023-05-23T23:46:34.289Z,3.47
2023-05-23T23:48:43.669Z,3.57
2023-05-23T23:50:52.465Z,4.20
2023-05-23T23:53:01.249Z,3.80
2023-05-23T23:55:10.679Z,3.50
2023-05-23T23:57:21.152Z,3.87
2023-05-23T23:59:30.457Z,3.90
